sensor_id;sensor_type;location;lat;lon;timestamp;temperature;humidity
55795;DHT22;41716;51.910;4.430;2023-05-18T00:02:22;12.50;99.90
55795;DHT22;41716;51.910;4.430;2023-05-18T00:07:25;12.10;99.90
55795;DHT22;41716;51.910;4.430;2023-05-18T00:12:30;12.00;99.90
55795;DHT22;41716;51.910;4.430;2023-05-18T00:17:32;11.90;99.90
55795;DHT22;41716;51.910;4.430;2023-05-18T00:22:34;11.80;99.90
55795;DHT22;41716;51.910;4.430;2023-05-18T00:27:37;11.80;99.90
55795;DHT22;41716;51.910;4.430;2023-05-18T00:32:38;11.80;99.90
55795;DHT22;41716;51.910;4.430;2023-05-18T00:37:40;11.60;99.90
55795;DHT22;41716;51.910;4.430;2023-05-18T00:42:43;11.60;99.90
55795;DHT22;41716;51.910;4.430;2023-05-18T00:47:45;11.60;99.90
55795;DHT22;41716;51.910;4.430;2023-05-18T00:52:46;11.60;99.90
55795;DHT22;41716;51.910;4.430;2023-05-18T00:57:49;11.50;99.90
55795;DHT22;41716;51.910;4.430;2023-05-18T01:02:51;11.40;99.90
55795;DHT22;41716;51.910;4.430;2023-05-18T01:07:53;11.40;99.90
55795;DHT22;41716;51.910;4.430;2023-05-18T01:13:01;11.40;99.90
55795;DHT22;41716;51.910;4.430;2023-05-18T01:18:10;11.30;99.90
55795;DHT22;41716;51.910;4.430;2023-05-18T01:29:05;11.20;99.90
55795;DHT22;41716;51.910;4.430;2023-05-18T01:34:09;11.30;99.90
55795;DHT22;41716;51.910;4.430;2023-05-18T01:39:11;11.30;99.90
55795;DHT22;41716;51.910;4.430;2023-05-18T01:44:18;11.20;99.90
55795;DHT22;41716;51.910;4.430;2023-05-18T01:49:27;11.00;99.90
55795;DHT22;41716;51.910;4.430;2023-05-18T01:54:30;11.10;99.90
55795;DHT22;41716;51.910;4.430;2023-05-18T01:59:34;11.20;99.90
55795;DHT22;41716;51.910;4.430;2023-05-18T02:04:37;10.90;99.90
55795;DHT22;41716;51.910;4.430;2023-05-18T02:09:38;11.00;99.90
55795;DHT22;41716;51.910;4.430;2023-05-18T02:14:41;10.90;99.90
55795;DHT22;41716;51.910;4.430;2023-05-18T02:19:43;11.00;99.90
55795;DHT22;41716;51.910;4.430;2023-05-18T02:24:45;10.80;99.90
55795;DHT22;41716;51.910;4.430;2023-05-18T02:29:48;10.60;99.90
55795;DHT22;41716;51.910;4.430;2023-05-18T02:34:51;10.90;99.90
55795;DHT22;41716;51.910;4.430;2023-05-18T02:39:53;10.90;99.90
55795;DHT22;41716;51.910;4.430;2023-05-18T02:44:56;10.80;99.90
55795;DHT22;41716;51.910;4.430;2023-05-18T02:49:58;10.40;99.90
55795;DHT22;41716;51.910;4.430;2023-05-18T02:54:59;10.70;99.90
55795;DHT22;41716;51.910;4.430;2023-05-18T03:00:03;10.60;99.90
55795;DHT22;41716;51.910;4.430;2023-05-18T03:05:09;10.60;99.90
55795;DHT22;41716;51.910;4.430;2023-05-18T03:10:11;10.60;99.90
55795;DHT22;41716;51.910;4.430;2023-05-18T03:15:14;10.50;99.90
55795;DHT22;41716;51.910;4.430;2023-05-18T03:20:16;10.50;99.90
55795;DHT22;41716;51.910;4.430;2023-05-18T03:25:19;10.30;99.90
55795;DHT22;41716;51.910;4.430;2023-05-18T03:30:23;10.30;99.90
55795;DHT22;41716;51.910;4.430;2023-05-18T03:35:24;10.20;99.90
55795;DHT22;41716;51.910;4.430;2023-05-18T03:40:26;10.30;99.90
55795;DHT22;41716;51.910;4.430;2023-05-18T03:45:29;10.30;99.90
55795;DHT22;41716;51.910;4.430;2023-05-18T03:50:31;10.40;99.90
55795;DHT22;41716;51.910;4.430;2023-05-18T03:55:33;10.40;99.90
55795;DHT22;41716;51.910;4.430;2023-05-18T04:00:36;10.40;99.90
55795;DHT22;41716;51.910;4.430;2023-05-18T04:05:37;10.20;99.90
55795;DHT22;41716;51.910;4.430;2023-05-18T04:10:40;10.10;99.90
55795;DHT22;41716;51.910;4.430;2023-05-18T04:15:43;10.00;99.90
55795;DHT22;41716;51.910;4.430;2023-05-18T04:20:45;10.20;99.90
55795;DHT22;41716;51.910;4.430;2023-05-18T04:25:46;10.00;99.90
55795;DHT22;41716;51.910;4.430;2023-05-18T04:30:50;10.10;99.90
55795;DHT22;41716;51.910;4.430;2023-05-18T04:35:52;10.40;99.90
55795;DHT22;41716;51.910;4.430;2023-05-18T04:40:55;10.20;99.90
55795;DHT22;41716;51.910;4.430;2023-05-18T04:45:58;10.20;99.90
55795;DHT22;41716;51.910;4.430;2023-05-18T04:51:00;10.30;99.90
55795;DHT22;41716;51.910;4.430;2023-05-18T04:56:04;10.40;99.90
55795;DHT22;41716;51.910;4.430;2023-05-18T05:01:07;10.40;99.90
55795;DHT22;41716;51.910;4.430;2023-05-18T05:06:09;10.40;99.90
55795;DHT22;41716;51.910;4.430;2023-05-18T05:11:11;10.50;99.90
55795;DHT22;41716;51.910;4.430;2023-05-18T05:16:14;10.60;99.90
55795;DHT22;41716;51.910;4.430;2023-05-18T05:21:15;11.00;99.90
55795;DHT22;41716;51.910;4.430;2023-05-18T05:26:17;11.00;99.90
55795;DHT22;41716;51.910;4.430;2023-05-18T05:31:22;11.20;99.90
55795;DHT22;41716;51.910;4.430;2023-05-18T05:36:23;11.00;99.90
55795;DHT22;41716;51.910;4.430;2023-05-18T05:41:25;11.40;99.90
55795;DHT22;41716;51.910;4.430;2023-05-18T05:46:28;11.50;99.90
55795;DHT22;41716;51.910;4.430;2023-05-18T05:51:30;11.50;99.90
55795;DHT22;41716;51.910;4.430;2023-05-18T05:56:31;11.70;99.90
55795;DHT22;41716;51.910;4.430;2023-05-18T06:01:34;11.60;99.90
55795;DHT22;41716;51.910;4.430;2023-05-18T06:06:36;12.00;99.90
55795;DHT22;41716;51.910;4.430;2023-05-18T06:11:38;12.00;99.90
55795;DHT22;41716;51.910;4.430;2023-05-18T06:16:41;12.20;99.90
55795;DHT22;41716;51.910;4.430;2023-05-18T06:21:43;12.60;99.90
55795;DHT22;41716;51.910;4.430;2023-05-18T06:26:45;12.80;99.90
55795;DHT22;41716;51.910;4.430;2023-05-18T06:31:48;12.90;99.90
55795;DHT22;41716;51.910;4.430;2023-05-18T06:36:50;13.00;99.90
55795;DHT22;41716;51.910;4.430;2023-05-18T06:41:52;13.30;99.90
55795;DHT22;41716;51.910;4.430;2023-05-18T06:46:55;13.40;99.90
55795;DHT22;41716;51.910;4.430;2023-05-18T06:51:56;13.70;99.90
55795;DHT22;41716;51.910;4.430;2023-05-18T06:56:58;13.90;99.90
55795;DHT22;41716;51.910;4.430;2023-05-18T07:02:01;14.00;99.90
55795;DHT22;41716;51.910;4.430;2023-05-18T07:07:03;13.90;99.90
55795;DHT22;41716;51.910;4.430;2023-05-18T07:12:05;14.20;99.90
55795;DHT22;41716;51.910;4.430;2023-05-18T07:17:08;14.40;99.90
55795;DHT22;41716;51.910;4.430;2023-05-18T07:22:10;14.90;99.90
55795;DHT22;41716;51.910;4.430;2023-05-18T07:27:12;15.10;99.90
55795;DHT22;41716;51.910;4.430;2023-05-18T07:32:15;15.60;99.90
55795;DHT22;41716;51.910;4.430;2023-05-18T07:37:17;15.40;99.90
55795;DHT22;41716;51.910;4.430;2023-05-18T07:42:18;15.80;99.90
55795;DHT22;41716;51.910;4.430;2023-05-18T07:47:21;16.30;99.90
55795;DHT22;41716;51.910;4.430;2023-05-18T07:52:23;15.90;99.90
55795;DHT22;41716;51.910;4.430;2023-05-18T07:57:25;15.40;99.90
55795;DHT22;41716;51.910;4.430;2023-05-18T08:02:28;16.50;99.90
55795;DHT22;41716;51.910;4.430;2023-05-18T08:07:30;16.80;99.90
55795;DHT22;41716;51.910;4.430;2023-05-18T08:12:32;16.60;99.90
55795;DHT22;41716;51.910;4.430;2023-05-18T08:17:35;16.70;99.90
55795;DHT22;41716;51.910;4.430;2023-05-18T08:22:37;17.10;99.90
55795;DHT22;41716;51.910;4.430;2023-05-18T08:27:39;17.70;99.90
55795;DHT22;41716;51.910;4.430;2023-05-18T08:32:42;17.80;99.90
55795;DHT22;41716;51.910;4.430;2023-05-18T08:37:43;17.80;99.90
55795;DHT22;41716;51.910;4.430;2023-05-18T08:42:48;17.60;99.90
55795;DHT22;41716;51.910;4.430;2023-05-18T08:47:55;17.70;99.90
55795;DHT22;41716;51.910;4.430;2023-05-18T08:53:00;18.00;99.90
55795;DHT22;41716;51.910;4.430;2023-05-18T08:58:03;17.80;99.90
55795;DHT22;41716;51.910;4.430;2023-05-18T09:03:07;18.40;99.90
55795;DHT22;41716;51.910;4.430;2023-05-18T09:08:09;18.00;99.90
55795;DHT22;41716;51.910;4.430;2023-05-18T09:13:14;17.90;99.90
55795;DHT22;41716;51.910;4.430;2023-05-18T09:18:18;18.20;99.90
55795;DHT22;41716;51.910;4.430;2023-05-18T09:23:20;18.50;99.90
55795;DHT22;41716;51.910;4.430;2023-05-18T09:28:26;18.40;99.90
55795;DHT22;41716;51.910;4.430;2023-05-18T09:33:33;18.40;99.90
55795;DHT22;41716;51.910;4.430;2023-05-18T09:38:36;18.90;99.90
55795;DHT22;41716;51.910;4.430;2023-05-18T09:43:38;18.70;99.90
55795;DHT22;41716;51.910;4.430;2023-05-18T09:48:44;18.10;99.90
55795;DHT22;41716;51.910;4.430;2023-05-18T09:53:47;19.00;99.90
55795;DHT22;41716;51.910;4.430;2023-05-18T09:58:49;18.80;99.90
55795;DHT22;41716;51.910;4.430;2023-05-18T10:03:52;18.60;99.90
55795;DHT22;41716;51.910;4.430;2023-05-18T10:09:13;18.90;99.90
55795;DHT22;41716;51.910;4.430;2023-05-18T10:14:16;18.90;99.90
55795;DHT22;41716;51.910;4.430;2023-05-18T10:19:19;18.70;99.90
55795;DHT22;41716;51.910;4.430;2023-05-18T10:24:22;18.40;99.90
55795;DHT22;41716;51.910;4.430;2023-05-18T10:29:25;18.40;99.90
55795;DHT22;41716;51.910;4.430;2023-05-18T10:34:29;19.00;99.90
55795;DHT22;41716;51.910;4.430;2023-05-18T10:39:32;18.70;99.90
55795;DHT22;41716;51.910;4.430;2023-05-18T10:44:35;18.20;99.90
55795;DHT22;41716;51.910;4.430;2023-05-18T10:49:39;18.60;99.90
55795;DHT22;41716;51.910;4.430;2023-05-18T10:54:43;19.40;99.90
55795;DHT22;41716;51.910;4.430;2023-05-18T10:59:45;19.10;99.90
55795;DHT22;41716;51.910;4.430;2023-05-18T11:04:49;20.30;99.90
55795;DHT22;41716;51.910;4.430;2023-05-18T11:09:51;21.10;99.90
55795;DHT22;41716;51.910;4.430;2023-05-18T11:14:54;21.40;99.90
55795;DHT22;41716;51.910;4.430;2023-05-18T11:20:12;21.90;99.90
55795;DHT22;41716;51.910;4.430;2023-05-18T11:25:37;22.00;99.40
55795;DHT22;41716;51.910;4.430;2023-05-18T11:30:45;22.10;99.20
55795;DHT22;41716;51.910;4.430;2023-05-18T11:36:02;21.60;99.60
55795;DHT22;41716;51.910;4.430;2023-05-18T11:41:06;21.70;98.80
55795;DHT22;41716;51.910;4.430;2023-05-18T11:46:16;22.40;98.50
55795;DHT22;41716;51.910;4.430;2023-05-18T11:51:21;22.70;97.40
55795;DHT22;41716;51.910;4.430;2023-05-18T11:56:24;23.10;97.20
55795;DHT22;41716;51.910;4.430;2023-05-18T12:01:28;23.20;97.10
55795;DHT22;41716;51.910;4.430;2023-05-18T12:06:31;22.60;96.90
55795;DHT22;41716;51.910;4.430;2023-05-18T12:11:34;22.30;96.10
55795;DHT22;41716;51.910;4.430;2023-05-18T12:16:36;22.50;95.50
55795;DHT22;41716;51.910;4.430;2023-05-18T12:21:40;23.00;95.60
55795;DHT22;41716;51.910;4.430;2023-05-18T12:26:42;23.30;95.40
55795;DHT22;41716;51.910;4.430;2023-05-18T12:31:46;23.30;95.00
55795;DHT22;41716;51.910;4.430;2023-05-18T12:36:53;23.50;95.10
55795;DHT22;41716;51.910;4.430;2023-05-18T12:42:07;23.40;95.00
55795;DHT22;41716;51.910;4.430;2023-05-18T12:47:10;23.60;94.90
55795;DHT22;41716;51.910;4.430;2023-05-18T12:52:14;23.50;94.70
55795;DHT22;41716;51.910;4.430;2023-05-18T12:57:16;23.40;94.60
55795;DHT22;41716;51.910;4.430;2023-05-18T13:02:28;24.00;95.10
55795;DHT22;41716;51.910;4.430;2023-05-18T13:07:31;23.80;94.30
55795;DHT22;41716;51.910;4.430;2023-05-18T13:12:41;23.40;94.80
55795;DHT22;41716;51.910;4.430;2023-05-18T13:18:02;24.20;94.50
55795;DHT22;41716;51.910;4.430;2023-05-18T13:23:07;23.40;93.70
55795;DHT22;41716;51.910;4.430;2023-05-18T13:28:10;23.90;94.00
55795;DHT22;41716;51.910;4.430;2023-05-18T13:33:12;23.60;94.00
55795;DHT22;41716;51.910;4.430;2023-05-18T13:38:15;23.50;93.50
55795;DHT22;41716;51.910;4.430;2023-05-18T13:43:16;23.70;93.60
55795;DHT22;41716;51.910;4.430;2023-05-18T13:48:18;24.30;93.70
55795;DHT22;41716;51.910;4.430;2023-05-18T13:53:21;24.30;93.50
55795;DHT22;41716;51.910;4.430;2023-05-18T13:58:23;23.00;93.90
55795;DHT22;41716;51.910;4.430;2023-05-18T14:03:24;24.10;93.30
55795;DHT22;41716;51.910;4.430;2023-05-18T14:08:28;24.30;92.90
55795;DHT22;41716;51.910;4.430;2023-05-18T14:13:29;24.10;92.80
55795;DHT22;41716;51.910;4.430;2023-05-18T14:18:31;23.40;92.80
55795;DHT22;41716;51.910;4.430;2023-05-18T14:23:34;23.40;92.90
55795;DHT22;41716;51.910;4.430;2023-05-18T14:28:35;24.00;92.80
55795;DHT22;41716;51.910;4.430;2023-05-18T14:33:37;23.60;93.10
55795;DHT22;41716;51.910;4.430;2023-05-18T14:38:40;23.50;92.40
55795;DHT22;41716;51.910;4.430;2023-05-18T14:43:42;23.40;92.60
55795;DHT22;41716;51.910;4.430;2023-05-18T14:48:45;22.70;93.20
55795;DHT22;41716;51.910;4.430;2023-05-18T14:53:48;22.70;93.40
55795;DHT22;41716;51.910;4.430;2023-05-18T14:58:50;22.90;93.10
55795;DHT22;41716;51.910;4.430;2023-05-18T15:03:52;22.70;92.90
55795;DHT22;41716;51.910;4.430;2023-05-18T15:08:55;23.00;92.80
55795;DHT22;41716;51.910;4.430;2023-05-18T15:13:56;23.00;93.20
55795;DHT22;41716;51.910;4.430;2023-05-18T15:18:58;22.70;92.30
55795;DHT22;41716;51.910;4.430;2023-05-18T15:24:01;21.90;92.70
55795;DHT22;41716;51.910;4.430;2023-05-18T15:29:03;22.30;92.30
55795;DHT22;41716;51.910;4.430;2023-05-18T15:34:04;22.20;92.60
55795;DHT22;41716;51.910;4.430;2023-05-18T15:39:08;21.50;92.60
55795;DHT22;41716;51.910;4.430;2023-05-18T15:44:09;22.20;92.60
55795;DHT22;41716;51.910;4.430;2023-05-18T15:49:11;22.00;93.50
55795;DHT22;41716;51.910;4.430;2023-05-18T15:54:15;22.30;92.90
55795;DHT22;41716;51.910;4.430;2023-05-18T15:59:17;22.20;92.90
55795;DHT22;41716;51.910;4.430;2023-05-18T16:04:18;21.90;93.40
55795;DHT22;41716;51.910;4.430;2023-05-18T16:09:21;21.90;93.90
55795;DHT22;41716;51.910;4.430;2023-05-18T16:14:23;22.10;93.80
55795;DHT22;41716;51.910;4.430;2023-05-18T16:19:25;22.20;94.30
55795;DHT22;41716;51.910;4.430;2023-05-18T16:24:28;21.80;94.60
55795;DHT22;41716;51.910;4.430;2023-05-18T16:29:30;21.70;95.20
55795;DHT22;41716;51.910;4.430;2023-05-18T16:34:32;21.00;95.50
55795;DHT22;41716;51.910;4.430;2023-05-18T16:39:34;21.70;95.20
55795;DHT22;41716;51.910;4.430;2023-05-18T16:44:36;21.40;95.00
55795;DHT22;41716;51.910;4.430;2023-05-18T16:49:38;21.20;95.30
55795;DHT22;41716;51.910;4.430;2023-05-18T16:54:41;20.60;95.40
55795;DHT22;41716;51.910;4.430;2023-05-18T16:59:42;20.70;95.90
55795;DHT22;41716;51.910;4.430;2023-05-18T17:04:44;20.90;95.80
55795;DHT22;41716;51.910;4.430;2023-05-18T17:09:50;20.50;96.30
55795;DHT22;41716;51.910;4.430;2023-05-18T17:14:51;20.40;96.40
55795;DHT22;41716;51.910;4.430;2023-05-18T17:19:53;20.50;96.30
55795;DHT22;41716;51.910;4.430;2023-05-18T17:24:56;20.10;96.60
55795;DHT22;41716;51.910;4.430;2023-05-18T17:29:58;20.30;96.70
55795;DHT22;41716;51.910;4.430;2023-05-18T17:35:00;20.30;96.90
55795;DHT22;41716;51.910;4.430;2023-05-18T17:40:05;19.90;97.30
55795;DHT22;41716;51.910;4.430;2023-05-18T17:45:09;20.00;97.10
55795;DHT22;41716;51.910;4.430;2023-05-18T17:50:11;19.60;97.70
55795;DHT22;41716;51.910;4.430;2023-05-18T17:55:14;19.50;97.80
55795;DHT22;41716;51.910;4.430;2023-05-18T18:00:17;19.70;97.60
55795;DHT22;41716;51.910;4.430;2023-05-18T18:05:18;19.60;98.00
55795;DHT22;41716;51.910;4.430;2023-05-18T18:10:22;19.60;97.90
55795;DHT22;41716;51.910;4.430;2023-05-18T18:15:24;19.40;98.60
55795;DHT22;41716;51.910;4.430;2023-05-18T18:20:28;19.30;98.40
55795;DHT22;41716;51.910;4.430;2023-05-18T18:25:32;19.00;98.80
55795;DHT22;41716;51.910;4.430;2023-05-18T18:30:33;19.20;99.00
55795;DHT22;41716;51.910;4.430;2023-05-18T18:35:35;19.10;99.30
55795;DHT22;41716;51.910;4.430;2023-05-18T18:40:39;19.10;99.30
55795;DHT22;41716;51.910;4.430;2023-05-18T18:45:40;18.70;99.70
55795;DHT22;41716;51.910;4.430;2023-05-18T18:50:42;18.50;99.90
55795;DHT22;41716;51.910;4.430;2023-05-18T18:55:45;18.80;99.90
55795;DHT22;41716;51.910;4.430;2023-05-18T19:00:47;18.70;99.90
55795;DHT22;41716;51.910;4.430;2023-05-18T19:05:49;18.30;99.90
55795;DHT22;41716;51.910;4.430;2023-05-18T19:10:52;18.50;99.90
55795;DHT22;41716;51.910;4.430;2023-05-18T19:15:55;18.30;99.90
55795;DHT22;41716;51.910;4.430;2023-05-18T19:20:57;18.10;99.90
55795;DHT22;41716;51.910;4.430;2023-05-18T19:26:01;18.30;99.90
55795;DHT22;41716;51.910;4.430;2023-05-18T19:31:03;18.10;99.90
55795;DHT22;41716;51.910;4.430;2023-05-18T19:36:05;18.00;99.90
55795;DHT22;41716;51.910;4.430;2023-05-18T19:41:08;18.00;99.90
55795;DHT22;41716;51.910;4.430;2023-05-18T19:46:10;17.80;99.90
55795;DHT22;41716;51.910;4.430;2023-05-18T19:51:12;17.70;99.90
55795;DHT22;41716;51.910;4.430;2023-05-18T19:56:15;17.60;99.90
55795;DHT22;41716;51.910;4.430;2023-05-18T20:01:17;17.40;99.90
55795;DHT22;41716;51.910;4.430;2023-05-18T20:06:18;17.30;99.90
55795;DHT22;41716;51.910;4.430;2023-05-18T20:11:22;17.20;99.90
55795;DHT22;41716;51.910;4.430;2023-05-18T20:16:24;17.20;99.90
55795;DHT22;41716;51.910;4.430;2023-05-18T20:21:28;17.10;99.90
55795;DHT22;41716;51.910;4.430;2023-05-18T20:26:32;16.80;99.90
55795;DHT22;41716;51.910;4.430;2023-05-18T20:31:34;16.70;99.90
55795;DHT22;41716;51.910;4.430;2023-05-18T20:36:36;16.60;99.90
55795;DHT22;41716;51.910;4.430;2023-05-18T20:41:39;16.70;99.90
55795;DHT22;41716;51.910;4.430;2023-05-18T20:46:41;16.50;99.90
55795;DHT22;41716;51.910;4.430;2023-05-18T20:51:43;16.50;99.90
55795;DHT22;41716;51.910;4.430;2023-05-18T20:56:46;16.40;99.90
55795;DHT22;41716;51.910;4.430;2023-05-18T21:01:48;16.40;99.90
55795;DHT22;41716;51.910;4.430;2023-05-18T21:06:53;16.70;99.90
55795;DHT22;41716;51.910;4.430;2023-05-18T21:11:57;16.40;99.90
55795;DHT22;41716;51.910;4.430;2023-05-18T21:16:59;16.30;99.90
55795;DHT22;41716;51.910;4.430;2023-05-18T21:22:01;16.10;99.90
55795;DHT22;41716;51.910;4.430;2023-05-18T21:27:04;16.20;99.90
55795;DHT22;41716;51.910;4.430;2023-05-18T21:32:06;16.10;99.90
55795;DHT22;41716;51.910;4.430;2023-05-18T21:37:08;16.00;99.90
55795;DHT22;41716;51.910;4.430;2023-05-18T21:42:12;16.00;99.90
55795;DHT22;41716;51.910;4.430;2023-05-18T21:47:14;15.90;99.90
55795;DHT22;41716;51.910;4.430;2023-05-18T21:52:15;15.70;99.90
55795;DHT22;41716;51.910;4.430;2023-05-18T21:57:18;15.60;99.90
55795;DHT22;41716;51.910;4.430;2023-05-18T22:02:20;15.60;99.90
55795;DHT22;41716;51.910;4.430;2023-05-18T22:07:22;15.50;99.90
55795;DHT22;41716;51.910;4.430;2023-05-18T22:12:25;15.60;99.90
55795;DHT22;41716;51.910;4.430;2023-05-18T22:17:27;15.30;99.90
55795;DHT22;41716;51.910;4.430;2023-05-18T22:22:29;15.20;99.90
55795;DHT22;41716;51.910;4.430;2023-05-18T22:27:32;15.10;99.90
55795;DHT22;41716;51.910;4.430;2023-05-18T22:32:36;15.20;99.90
55795;DHT22;41716;51.910;4.430;2023-05-18T22:37:38;15.20;99.90
55795;DHT22;41716;51.910;4.430;2023-05-18T22:42:41;15.00;99.90
55795;DHT22;41716;51.910;4.430;2023-05-18T22:47:43;14.90;99.90
55795;DHT22;41716;51.910;4.430;2023-05-18T22:52:45;14.90;99.90
55795;DHT22;41716;51.910;4.430;2023-05-18T22:57:48;14.80;99.90
55795;DHT22;41716;51.910;4.430;2023-05-18T23:02:50;14.90;99.90
55795;DHT22;41716;51.910;4.430;2023-05-18T23:07:53;14.80;99.90
55795;DHT22;41716;51.910;4.430;2023-05-18T23:12:58;14.50;99.90
55795;DHT22;41716;51.910;4.430;2023-05-18T23:18:00;14.60;99.90
55795;DHT22;41716;51.910;4.430;2023-05-18T23:23:02;14.30;99.90
55795;DHT22;41716;51.910;4.430;2023-05-18T23:28:05;14.40;99.90
55795;DHT22;41716;51.910;4.430;2023-05-18T23:33:07;14.40;99.90
55795;DHT22;41716;51.910;4.430;2023-05-18T23:38:09;14.40;99.90
55795;DHT22;41716;51.910;4.430;2023-05-18T23:43:19;14.30;99.90
55795;DHT22;41716;51.910;4.430;2023-05-18T23:48:22;14.20;99.90
55795;DHT22;41716;51.910;4.430;2023-05-18T23:53:24;13.90;99.90
55795;DHT22;41716;51.910;4.430;2023-05-18T23:58:31;14.10;99.90
